sensor_id;sensor_type;location;lat;lon;timestamp;pressure;altitude;pressure_sealevel;temperature;humidity
45285;BME280;31026;43.780;25.948;2022-10-15T00:00:38;101388.34;;;20.99;65.88
45285;BME280;31026;43.780;25.948;2022-10-15T00:03:06;101396.41;;;20.99;65.81
45285;BME280;31026;43.780;25.948;2022-10-15T00:05:35;101400.78;;;21.00;65.67
45285;BME280;31026;43.780;25.948;2022-10-15T00:08:07;101402.75;;;20.98;65.74
45285;BME280;31026;43.780;25.948;2022-10-15T00:10:36;101409.56;;;21.02;65.67
45285;BME280;31026;43.780;25.948;2022-10-15T00:13:05;101411.56;;;21.00;65.89
45285;BME280;31026;43.780;25.948;2022-10-15T00:15:34;101403.75;;;20.97;65.65
45285;BME280;31026;43.780;25.948;2022-10-15T00:18:03;101401.91;;;20.98;65.54
45285;BME280;31026;43.780;25.948;2022-10-15T00:20:31;101415.25;;;20.99;65.61
45285;BME280;31026;43.780;25.948;2022-10-15T00:22:59;101414.53;;;20.97;65.57
45285;BME280;31026;43.780;25.948;2022-10-15T00:25:30;101411.69;;;20.99;65.73
45285;BME280;31026;43.780;25.948;2022-10-15T00:27:59;101412.69;;;20.98;65.49
45285;BME280;31026;43.780;25.948;2022-10-15T00:30:27;101416.22;;;20.98;65.56
45285;BME280;31026;43.780;25.948;2022-10-15T00:32:55;101410.97;;;20.97;65.71
45285;BME280;31026;43.780;25.948;2022-10-15T00:35:23;101404.75;;;20.96;65.58
45285;BME280;31026;43.780;25.948;2022-10-15T00:37:52;101403.03;;;20.95;65.79
45285;BME280;31026;43.780;25.948;2022-10-15T00:40:20;101400.47;;;20.94;65.86
45285;BME280;31026;43.780;25.948;2022-10-15T00:42:51;101413.81;;;20.95;65.28
45285;BME280;31026;43.780;25.948;2022-10-15T00:45:19;101406.72;;;20.94;65.49
45285;BME280;31026;43.780;25.948;2022-10-15T00:47:48;101408.44;;;20.95;65.54
45285;BME280;31026;43.780;25.948;2022-10-15T00:50:17;101402.34;;;20.93;65.64
45285;BME280;31026;43.780;25.948;2022-10-15T00:52:49;101410.41;;;20.93;65.30
45285;BME280;31026;43.780;25.948;2022-10-15T00:55:23;101400.59;;;20.92;65.42
45285;BME280;31026;43.780;25.948;2022-10-15T00:57:56;101408.81;;;20.91;65.28
45285;BME280;31026;43.780;25.948;2022-10-15T01:00:26;101390.13;;;20.89;65.36
45285;BME280;31026;43.780;25.948;2022-10-15T01:02:54;101389.97;;;20.91;65.52
45285;BME280;31026;43.780;25.948;2022-10-15T01:05:22;101391.56;;;20.93;65.50
45285;BME280;31026;43.780;25.948;2022-10-15T01:07:51;101393.53;;;20.91;65.33
45285;BME280;31026;43.780;25.948;2022-10-15T01:10:19;101387.16;;;20.92;65.50
45285;BME280;31026;43.780;25.948;2022-10-15T01:12:51;101392.81;;;20.89;65.36
45285;BME280;31026;43.780;25.948;2022-10-15T01:15:28;101402.34;;;20.93;65.16
45285;BME280;31026;43.780;25.948;2022-10-15T01:18:00;101402.59;;;20.90;65.07
45285;BME280;31026;43.780;25.948;2022-10-15T01:20:43;101412.22;;;20.93;65.15
45285;BME280;31026;43.780;25.948;2022-10-15T01:26:06;101412.38;;;20.91;65.52
45285;BME280;31026;43.780;25.948;2022-10-15T01:28:41;101397.19;;;20.90;65.17
45285;BME280;31026;43.780;25.948;2022-10-15T01:31:18;101404.69;;;20.86;65.09
45285;BME280;31026;43.780;25.948;2022-10-15T01:33:49;101393.78;;;20.88;65.32
45285;BME280;31026;43.780;25.948;2022-10-15T01:36:23;101387.56;;;20.88;65.34
45285;BME280;31026;43.780;25.948;2022-10-15T01:38:55;101386.84;;;20.85;65.25
45285;BME280;31026;43.780;25.948;2022-10-15T01:41:26;101402.72;;;20.89;65.46
45285;BME280;31026;43.780;25.948;2022-10-15T01:43:57;101398.22;;;20.89;65.03
45285;BME280;31026;43.780;25.948;2022-10-15T01:46:30;101393.19;;;20.84;64.96
45285;BME280;31026;43.780;25.948;2022-10-15T01:49:00;101387.69;;;20.86;65.29
45285;BME280;31026;43.780;25.948;2022-10-15T01:51:30;101393.06;;;20.86;64.99
45285;BME280;31026;43.780;25.948;2022-10-15T01:54:01;101391.09;;;20.88;65.26
45285;BME280;31026;43.780;25.948;2022-10-15T01:56:33;101405.56;;;20.87;64.99
45285;BME280;31026;43.780;25.948;2022-10-15T01:59:02;101413.75;;;20.85;65.17
45285;BME280;31026;43.780;25.948;2022-10-15T02:01:33;101410.22;;;20.85;64.99
45285;BME280;31026;43.780;25.948;2022-10-15T02:04:01;101409.47;;;20.83;64.95
45285;BME280;31026;43.780;25.948;2022-10-15T02:06:43;101405.94;;;20.82;65.03
45285;BME280;31026;43.780;25.948;2022-10-15T02:09:15;101404.09;;;20.83;65.10
45285;BME280;31026;43.780;25.948;2022-10-15T02:11:49;101409.47;;;20.83;64.82
45285;BME280;31026;43.780;25.948;2022-10-15T02:14:19;101408.63;;;20.82;64.82
45285;BME280;31026;43.780;25.948;2022-10-15T02:16:57;101403.25;;;20.82;64.98
45285;BME280;31026;43.780;25.948;2022-10-15T02:19:29;101412.03;;;20.84;64.95
45285;BME280;31026;43.780;25.948;2022-10-15T02:22:04;101415.72;;;20.83;64.74
45285;BME280;31026;43.780;25.948;2022-10-15T02:24:33;101405.94;;;20.82;65.04
45285;BME280;31026;43.780;25.948;2022-10-15T02:27:04;101407.91;;;20.80;65.01
45285;BME280;31026;43.780;25.948;2022-10-15T02:29:33;101406.22;;;20.79;64.71
45285;BME280;31026;43.780;25.948;2022-10-15T02:32:05;101411.44;;;20.81;65.08
45285;BME280;31026;43.780;25.948;2022-10-15T02:34:36;101426.34;;;20.85;64.68
45285;BME280;31026;43.780;25.948;2022-10-15T02:37:04;101416.81;;;20.81;64.76
45285;BME280;31026;43.780;25.948;2022-10-15T02:39:34;101413.03;;;20.83;64.82
45285;BME280;31026;43.780;25.948;2022-10-15T02:42:02;101410.72;;;20.79;64.88
45285;BME280;31026;43.780;25.948;2022-10-15T02:44:31;101420.50;;;20.80;65.00
45285;BME280;31026;43.780;25.948;2022-10-15T02:46:59;101418.94;;;20.77;64.72
45285;BME280;31026;43.780;25.948;2022-10-15T02:49:30;101422.47;;;20.78;64.67
45285;BME280;31026;43.780;25.948;2022-10-15T02:51:58;101405.50;;;20.77;64.72
45285;BME280;31026;43.780;25.948;2022-10-15T02:54:27;101407.31;;;20.77;64.74
45285;BME280;31026;43.780;25.948;2022-10-15T02:56:55;101400.25;;;20.76;64.66
45285;BME280;31026;43.780;25.948;2022-10-15T02:59:23;101417.09;;;20.78;64.56
45285;BME280;31026;43.780;25.948;2022-10-15T03:01:52;101410.16;;;20.75;64.64
45285;BME280;31026;43.780;25.948;2022-10-15T03:04:20;101417.81;;;20.80;64.64
45285;BME280;31026;43.780;25.948;2022-10-15T03:06:51;101409.28;;;20.75;64.62
45285;BME280;31026;43.780;25.948;2022-10-15T03:09:19;101402.91;;;20.76;64.88
45285;BME280;31026;43.780;25.948;2022-10-15T03:11:48;101405.88;;;20.73;64.75
45285;BME280;31026;43.780;25.948;2022-10-15T03:14:16;101406.59;;;20.75;64.53
45285;BME280;31026;43.780;25.948;2022-10-15T03:16:44;101408.31;;;20.76;64.67
45285;BME280;31026;43.780;25.948;2022-10-15T03:19:12;101411.84;;;20.76;64.60
45285;BME280;31026;43.780;25.948;2022-10-15T03:21:41;101404.91;;;20.74;64.49
45285;BME280;31026;43.780;25.948;2022-10-15T03:24:12;101417.34;;;20.75;64.60
45285;BME280;31026;43.780;25.948;2022-10-15T03:26:40;101427.97;;;20.76;64.58
45285;BME280;31026;43.780;25.948;2022-10-15T03:29:08;101421.63;;;20.77;64.59
45285;BME280;31026;43.780;25.948;2022-10-15T03:31:37;101419.31;;;20.73;64.66
45285;BME280;31026;43.780;25.948;2022-10-15T03:34:05;101407.09;;;20.69;64.54
45285;BME280;31026;43.780;25.948;2022-10-15T03:36:33;101422.00;;;20.73;64.56
45285;BME280;31026;43.780;25.948;2022-10-15T03:39:02;101418.56;;;20.71;64.46
45285;BME280;31026;43.780;25.948;2022-10-15T03:41:33;101423.97;;;20.71;64.71
45285;BME280;31026;43.780;25.948;2022-10-15T03:44:02;101418.72;;;20.69;64.57
45285;BME280;31026;43.780;25.948;2022-10-15T03:46:30;101417.84;;;20.69;64.65
45285;BME280;31026;43.780;25.948;2022-10-15T03:48:59;101415.03;;;20.70;64.52
45285;BME280;31026;43.780;25.948;2022-10-15T03:51:27;101415.28;;;20.67;64.66
45285;BME280;31026;43.780;25.948;2022-10-15T03:53:55;101427.75;;;20.68;64.62
45285;BME280;31026;43.780;25.948;2022-10-15T03:56:24;101422.38;;;20.68;64.55
45285;BME280;31026;43.780;25.948;2022-10-15T03:58:55;101430.44;;;20.68;64.46
45285;BME280;31026;43.780;25.948;2022-10-15T04:01:23;101429.34;;;20.71;64.37
45285;BME280;31026;43.780;25.948;2022-10-15T04:03:51;101417.00;;;20.68;64.59
45285;BME280;31026;43.780;25.948;2022-10-15T04:06:20;101426.03;;;20.67;64.26
45285;BME280;31026;43.780;25.948;2022-10-15T04:08:48;101426.53;;;20.72;64.52
45285;BME280;31026;43.780;25.948;2022-10-15T04:11:16;101439.13;;;20.72;64.59
45285;BME280;31026;43.780;25.948;2022-10-15T04:13:47;101430.31;;;20.70;64.25
45285;BME280;31026;43.780;25.948;2022-10-15T04:16:18;101434.47;;;20.74;64.25
45285;BME280;31026;43.780;25.948;2022-10-15T04:18:46;101442.84;;;20.80;64.22
45285;BME280;31026;43.780;25.948;2022-10-15T04:21:15;101432.09;;;20.80;64.82
45285;BME280;31026;43.780;25.948;2022-10-15T04:23:43;101434.91;;;20.79;65.31
45285;BME280;31026;43.780;25.948;2022-10-15T04:26:11;101427.25;;;20.74;65.53
45285;BME280;31026;43.780;25.948;2022-10-15T04:28:40;101436.16;;;20.75;65.83
45285;BME280;31026;43.780;25.948;2022-10-15T04:31:08;101430.78;;;20.75;66.31
45285;BME280;31026;43.780;25.948;2022-10-15T04:33:39;101440.28;;;20.79;66.41
45285;BME280;31026;43.780;25.948;2022-10-15T04:36:09;101443.97;;;20.78;66.58
45285;BME280;31026;43.780;25.948;2022-10-15T04:38:39;101450.19;;;20.78;66.58
45285;BME280;31026;43.780;25.948;2022-10-15T04:41:08;101437.16;;;20.74;66.99
45285;BME280;31026;43.780;25.948;2022-10-15T04:43:37;101440.28;;;20.79;67.06
45285;BME280;31026;43.780;25.948;2022-10-15T04:46:06;101449.34;;;20.78;66.82
45285;BME280;31026;43.780;25.948;2022-10-15T04:48:35;101440.81;;;20.73;67.00
45285;BME280;31026;43.780;25.948;2022-10-15T04:51:08;101440.69;;;20.74;67.30
45285;BME280;31026;43.780;25.948;2022-10-15T04:53:39;101454.97;;;20.75;67.28
45285;BME280;31026;43.780;25.948;2022-10-15T04:56:09;101458.91;;;20.71;67.25
45285;BME280;31026;43.780;25.948;2022-10-15T04:58:40;101449.34;;;20.78;67.14
45285;BME280;31026;43.780;25.948;2022-10-15T05:01:09;101451.81;;;20.91;66.96
45285;BME280;31026;43.780;25.948;2022-10-15T05:03:39;101449.25;;;21.62;64.91
45285;BME280;31026;43.780;25.948;2022-10-15T05:06:11;101453.97;;;22.30;63.32
45285;BME280;31026;43.780;25.948;2022-10-15T05:08:39;101428.44;;;22.63;62.59
45285;BME280;31026;43.780;25.948;2022-10-15T05:11:09;101438.16;;;22.93;61.96
45285;BME280;31026;43.780;25.948;2022-10-15T05:13:38;101430.25;;;22.82;62.37
45285;BME280;31026;43.780;25.948;2022-10-15T05:16:10;101443.16;;;22.88;62.21
45285;BME280;31026;43.780;25.948;2022-10-15T05:18:39;101447.13;;;23.03;61.37
45285;BME280;31026;43.780;25.948;2022-10-15T05:21:11;101445.84;;;22.98;61.90
45285;BME280;31026;43.780;25.948;2022-10-15T05:23:39;101448.84;;;23.05;61.54
45285;BME280;31026;43.780;25.948;2022-10-15T05:26:10;101448.69;;;23.16;61.31
45285;BME280;31026;43.780;25.948;2022-10-15T05:28:38;101462.66;;;23.29;61.24
45285;BME280;31026;43.780;25.948;2022-10-15T05:31:07;101454.19;;;23.24;61.25
45285;BME280;31026;43.780;25.948;2022-10-15T05:33:36;101471.66;;;23.20;61.02
45285;BME280;31026;43.780;25.948;2022-10-15T05:36:11;101472.66;;;23.19;60.98
45285;BME280;31026;43.780;25.948;2022-10-15T05:38:41;101469.25;;;22.97;60.48
45285;BME280;31026;43.780;25.948;2022-10-15T05:41:09;101464.88;;;22.77;61.18
45285;BME280;31026;43.780;25.948;2022-10-15T05:43:38;101484.59;;;22.29;62.70
45285;BME280;31026;43.780;25.948;2022-10-15T05:46:06;101474.56;;;22.40;63.19
45285;BME280;31026;43.780;25.948;2022-10-15T05:48:34;101479.22;;;22.48;62.64
45285;BME280;31026;43.780;25.948;2022-10-15T05:51:03;101481.06;;;22.67;62.55
45285;BME280;31026;43.780;25.948;2022-10-15T05:53:35;101486.31;;;22.78;62.50
45285;BME280;31026;43.780;25.948;2022-10-15T05:56:04;101492.28;;;22.82;62.53
45285;BME280;31026;43.780;25.948;2022-10-15T05:58:33;101500.91;;;22.95;62.25
45285;BME280;31026;43.780;25.948;2022-10-15T06:01:04;101486.84;;;22.92;62.28
45285;BME280;31026;43.780;25.948;2022-10-15T06:03:32;101483.50;;;22.51;64.06
45285;BME280;31026;43.780;25.948;2022-10-15T06:06:01;101499.56;;;22.21;65.08
45285;BME280;31026;43.780;25.948;2022-10-15T06:08:30;101495.28;;;21.99;65.10
45285;BME280;31026;43.780;25.948;2022-10-15T06:11:03;101498.22;;;21.87;65.20
45285;BME280;31026;43.780;25.948;2022-10-15T06:13:32;101507.38;;;21.74;65.84
45285;BME280;31026;43.780;25.948;2022-10-15T06:16:02;101506.47;;;21.64;65.09
45285;BME280;31026;43.780;25.948;2022-10-15T06:18:30;101507.75;;;21.60;64.87
45285;BME280;31026;43.780;25.948;2022-10-15T06:20:58;101494.81;;;21.54;65.05
45285;BME280;31026;43.780;25.948;2022-10-15T06:23:27;101488.59;;;21.53;64.84
45285;BME280;31026;43.780;25.948;2022-10-15T06:25:55;101504.63;;;21.55;65.26
45285;BME280;31026;43.780;25.948;2022-10-15T06:28:26;101503.44;;;21.48;64.71
45285;BME280;31026;43.780;25.948;2022-10-15T06:30:56;101500.53;;;21.39;65.17
45285;BME280;31026;43.780;25.948;2022-10-15T06:33:25;101496.41;;;21.35;65.30
45285;BME280;31026;43.780;25.948;2022-10-15T06:35:53;101491.28;;;21.32;65.11
45285;BME280;31026;43.780;25.948;2022-10-15T06:38:22;101496.78;;;21.31;64.78
45285;BME280;31026;43.780;25.948;2022-10-15T06:40:50;101503.28;;;21.28;64.84
45285;BME280;31026;43.780;25.948;2022-10-15T06:43:18;101513.81;;;21.31;65.10
45285;BME280;31026;43.780;25.948;2022-10-15T06:45:50;101507.84;;;21.28;64.88
45285;BME280;31026;43.780;25.948;2022-10-15T06:48:18;101514.91;;;21.29;64.58
45285;BME280;31026;43.780;25.948;2022-10-15T06:50:47;101516.50;;;21.31;64.77
45285;BME280;31026;43.780;25.948;2022-10-15T06:53:15;101509.13;;;21.33;64.82
45285;BME280;31026;43.780;25.948;2022-10-15T06:55:43;101510.84;;;21.34;66.00
45285;BME280;31026;43.780;25.948;2022-10-15T06:58:11;101514.25;;;21.36;65.61
45285;BME280;31026;43.780;25.948;2022-10-15T07:00:40;101527.44;;;21.39;66.10
45285;BME280;31026;43.780;25.948;2022-10-15T07:03:11;101511.72;;;21.35;66.03
45285;BME280;31026;43.780;25.948;2022-10-15T07:05:39;101505.44;;;21.34;65.91
45285;BME280;31026;43.780;25.948;2022-10-15T07:08:07;101508.00;;;21.36;65.92
45285;BME280;31026;43.780;25.948;2022-10-15T07:10:35;101509.44;;;21.40;66.11
45285;BME280;31026;43.780;25.948;2022-10-15T07:13:04;101514.97;;;21.38;66.42
45285;BME280;31026;43.780;25.948;2022-10-15T07:15:32;101505.91;;;21.39;66.59
45285;BME280;31026;43.780;25.948;2022-10-15T07:18:00;101501.78;;;21.35;66.14
45285;BME280;31026;43.780;25.948;2022-10-15T07:20:31;101501.50;;;21.38;66.31
45285;BME280;31026;43.780;25.948;2022-10-15T07:23:00;101496.13;;;21.38;65.65
45285;BME280;31026;43.780;25.948;2022-10-15T07:25:29;101506.38;;;21.44;65.58
45285;BME280;31026;43.780;25.948;2022-10-15T07:27:57;101514.97;;;21.38;65.53
45285;BME280;31026;43.780;25.948;2022-10-15T07:30:26;101501.50;;;21.38;65.39
45285;BME280;31026;43.780;25.948;2022-10-15T07:32:54;101506.88;;;21.38;64.96
45285;BME280;31026;43.780;25.948;2022-10-15T07:35:23;101503.84;;;21.43;65.13
45285;BME280;31026;43.780;25.948;2022-10-15T07:37:53;101505.44;;;21.34;65.23
45285;BME280;31026;43.780;25.948;2022-10-15T07:40:22;101508.72;;;21.17;63.78
45285;BME280;31026;43.780;25.948;2022-10-15T07:42:53;101502.59;;;21.05;60.07
45285;BME280;31026;43.780;25.948;2022-10-15T07:45:22;101506.31;;;21.14;61.19
45285;BME280;31026;43.780;25.948;2022-10-15T07:47:51;101497.47;;;21.23;62.46
45285;BME280;31026;43.780;25.948;2022-10-15T07:50:20;101495.94;;;21.30;62.09
45285;BME280;31026;43.780;25.948;2022-10-15T07:52:49;101509.44;;;21.40;61.81
45285;BME280;31026;43.780;25.948;2022-10-15T07:55:20;101493.66;;;21.47;62.72
45285;BME280;31026;43.780;25.948;2022-10-15T07:57:48;101504.16;;;21.50;63.01
45285;BME280;31026;43.780;25.948;2022-10-15T08:00:16;101492.16;;;21.12;56.82
45285;BME280;31026;43.780;25.948;2022-10-15T08:02:45;101504.34;;;21.16;59.28
45285;BME280;31026;43.780;25.948;2022-10-15T08:05:13;101493.72;;;21.14;56.53
45285;BME280;31026;43.780;25.948;2022-10-15T08:07:42;101498.25;;;21.14;56.80
45285;BME280;31026;43.780;25.948;2022-10-15T08:10:10;101511.59;;;21.15;61.70
45285;BME280;31026;43.780;25.948;2022-10-15T08:12:41;101496.81;;;21.10;58.36
45285;BME280;31026;43.780;25.948;2022-10-15T08:15:09;101507.81;;;21.06;57.08
45285;BME280;31026;43.780;25.948;2022-10-15T08:17:38;101513.84;;;20.99;56.61
45285;BME280;31026;43.780;25.948;2022-10-15T08:20:07;101505.94;;;20.97;57.32
45285;BME280;31026;43.780;25.948;2022-10-15T08:22:35;101509.16;;;20.91;55.24
45285;BME280;31026;43.780;25.948;2022-10-15T08:25:04;101516.22;;;20.92;55.34
45285;BME280;31026;43.780;25.948;2022-10-15T08:27:32;101506.63;;;20.78;54.43
45285;BME280;31026;43.780;25.948;2022-10-15T08:30:03;101519.94;;;20.80;55.95
45285;BME280;31026;43.780;25.948;2022-10-15T08:32:32;101520.91;;;20.79;55.78
45285;BME280;31026;43.780;25.948;2022-10-15T08:35:00;101509.22;;;20.69;54.55
45285;BME280;31026;43.780;25.948;2022-10-15T08:37:28;101522.06;;;20.65;54.69
45285;BME280;31026;43.780;25.948;2022-10-15T08:39:56;101513.91;;;20.55;55.13
45285;BME280;31026;43.780;25.948;2022-10-15T08:42:26;101524.81;;;20.42;54.90
45285;BME280;31026;43.780;25.948;2022-10-15T08:44:57;101524.66;;;20.55;54.81
45285;BME280;31026;43.780;25.948;2022-10-15T08:47:31;101527.59;;;20.63;53.92
45285;BME280;31026;43.780;25.948;2022-10-15T08:50:02;101517.56;;;20.65;55.49
45285;BME280;31026;43.780;25.948;2022-10-15T08:52:35;101511.47;;;20.63;54.71
45285;BME280;31026;43.780;25.948;2022-10-15T08:55:08;101515.59;;;20.68;56.95
45285;BME280;31026;43.780;25.948;2022-10-15T08:57:37;101526.25;;;20.69;56.86
45285;BME280;31026;43.780;25.948;2022-10-15T09:00:11;101524.63;;;20.66;56.99
45285;BME280;31026;43.780;25.948;2022-10-15T09:02:44;101529.69;;;20.49;52.87
45285;BME280;31026;43.780;25.948;2022-10-15T09:05:20;101524.91;;;20.52;55.12
45285;BME280;31026;43.780;25.948;2022-10-15T09:07:52;101524.13;;;20.73;57.26
45285;BME280;31026;43.780;25.948;2022-10-15T09:10:26;101529.47;;;20.84;57.27
45285;BME280;31026;43.780;25.948;2022-10-15T09:12:59;101525.28;;;20.91;57.42
45285;BME280;31026;43.780;25.948;2022-10-15T09:15:30;101524.47;;;21.00;57.99
45285;BME280;31026;43.780;25.948;2022-10-15T09:18:03;101530.75;;;21.01;59.23
45285;BME280;31026;43.780;25.948;2022-10-15T09:20:33;101528.09;;;21.11;59.09
45285;BME280;31026;43.780;25.948;2022-10-15T09:23:07;101537.59;;;21.15;59.13
45285;BME280;31026;43.780;25.948;2022-10-15T09:25:38;101516.97;;;21.15;59.96
45285;BME280;31026;43.780;25.948;2022-10-15T09:28:09;101529.53;;;21.15;59.89
45285;BME280;31026;43.780;25.948;2022-10-15T09:30:38;101510.34;;;21.19;60.19
45285;BME280;31026;43.780;25.948;2022-10-15T09:33:14;101525.88;;;21.16;60.71
45285;BME280;31026;43.780;25.948;2022-10-15T09:35:45;101516.16;;;21.03;60.56
45285;BME280;31026;43.780;25.948;2022-10-15T09:38:22;101518.56;;;21.06;60.77
45285;BME280;31026;43.780;25.948;2022-10-15T09:40:55;101521.47;;;21.15;60.65
45285;BME280;31026;43.780;25.948;2022-10-15T09:43:29;101519.25;;;21.20;60.76
45285;BME280;31026;43.780;25.948;2022-10-15T09:46:00;101517.81;;;21.16;60.88
45285;BME280;31026;43.780;25.948;2022-10-15T09:48:32;101529.28;;;21.18;62.01
45285;BME280;31026;43.780;25.948;2022-10-15T09:51:05;101513.88;;;21.20;61.00
45285;BME280;31026;43.780;25.948;2022-10-15T09:53:39;101506.81;;;21.19;61.98
45285;BME280;31026;43.780;25.948;2022-10-15T09:56:12;101506.81;;;21.19;61.64
45285;BME280;31026;43.780;25.948;2022-10-15T09:58:43;101511.91;;;21.22;61.50
45285;BME280;31026;43.780;25.948;2022-10-15T10:01:18;101506.50;;;21.22;61.72
45285;BME280;31026;43.780;25.948;2022-10-15T10:03:51;101501.84;;;21.24;61.88
45285;BME280;31026;43.780;25.948;2022-10-15T10:06:20;101498.31;;;21.23;61.50
45285;BME280;31026;43.780;25.948;2022-10-15T10:08:50;101493.78;;;21.24;61.81
45285;BME280;31026;43.780;25.948;2022-10-15T10:11:19;101496.47;;;21.24;62.11
45285;BME280;31026;43.780;25.948;2022-10-15T10:13:52;101497.78;;;21.30;62.18
45285;BME280;31026;43.780;25.948;2022-10-15T10:16:22;101488.69;;;21.21;61.73
45285;BME280;31026;43.780;25.948;2022-10-15T10:19:03;101476.19;;;21.41;61.76
45285;BME280;31026;43.780;25.948;2022-10-15T10:21:32;101490.19;;;21.35;61.58
45285;BME280;31026;43.780;25.948;2022-10-15T10:26:44;101470.47;;;21.34;61.65
45285;BME280;31026;43.780;25.948;2022-10-15T10:29:15;101485.38;;;21.38;61.98
45285;BME280;31026;43.780;25.948;2022-10-15T10:31:45;101486.25;;;21.39;61.75
45285;BME280;31026;43.780;25.948;2022-10-15T10:34:19;101487.09;;;21.39;62.09
45285;BME280;31026;43.780;25.948;2022-10-15T10:36:50;101473.03;;;21.36;61.98
45285;BME280;31026;43.780;25.948;2022-10-15T10:39:23;101487.94;;;21.40;62.10
45285;BME280;31026;43.780;25.948;2022-10-15T10:41:53;101480.13;;;21.37;62.08
45285;BME280;31026;43.780;25.948;2022-10-15T10:44:25;101480.84;;;21.39;61.94
45285;BME280;31026;43.780;25.948;2022-10-15T10:47:01;101488.06;;;21.38;61.78
45285;BME280;31026;43.780;25.948;2022-10-15T10:49:33;101475.47;;;21.39;61.73
45285;BME280;31026;43.780;25.948;2022-10-15T10:52:02;101469.81;;;21.42;62.29
45285;BME280;31026;43.780;25.948;2022-10-15T10:54:30;101466.41;;;21.40;62.02
45285;BME280;31026;43.780;25.948;2022-10-15T10:56:59;101458.47;;;21.38;61.83
45285;BME280;31026;43.780;25.948;2022-10-15T10:59:29;101454.78;;;21.39;62.25
45285;BME280;31026;43.780;25.948;2022-10-15T11:01:58;101455.63;;;21.40;61.99
45285;BME280;31026;43.780;25.948;2022-10-15T11:04:29;101466.03;;;21.44;62.18
45285;BME280;31026;43.780;25.948;2022-10-15T11:07:02;101468.72;;;21.44;62.26
45285;BME280;31026;43.780;25.948;2022-10-15T11:09:43;101464.22;;;21.45;62.24
45285;BME280;31026;43.780;25.948;2022-10-15T11:12:21;101460.19;;;21.39;62.15
45285;BME280;31026;43.780;25.948;2022-10-15T11:14:52;101447.19;;;21.44;62.34
45285;BME280;31026;43.780;25.948;2022-10-15T11:17:22;101444.50;;;21.44;62.08
45285;BME280;31026;43.780;25.948;2022-10-15T11:19:57;101442.81;;;21.43;62.43
45285;BME280;31026;43.780;25.948;2022-10-15T11:22:37;101442.06;;;21.41;62.51
45285;BME280;31026;43.780;25.948;2022-10-15T11:25:13;101443.75;;;21.42;62.41
45285;BME280;31026;43.780;25.948;2022-10-15T11:27:49;101437.59;;;21.52;62.82
45285;BME280;31026;43.780;25.948;2022-10-15T11:30:26;101427.53;;;21.54;62.45
45285;BME280;31026;43.780;25.948;2022-10-15T11:32:58;101434.78;;;21.53;62.26
45285;BME280;31026;43.780;25.948;2022-10-15T11:35:32;101423.16;;;21.53;62.62
45285;BME280;31026;43.780;25.948;2022-10-15T11:38:10;101429.97;;;21.57;60.92
45285;BME280;31026;43.780;25.948;2022-10-15T11:40:42;101441.00;;;21.54;61.28
45285;BME280;31026;43.780;25.948;2022-10-15T11:43:16;101424.84;;;21.54;62.32
45285;BME280;31026;43.780;25.948;2022-10-15T11:45:52;101419.22;;;21.57;61.96
45285;BME280;31026;43.780;25.948;2022-10-15T11:48:25;101434.09;;;21.61;62.02
45285;BME280;31026;43.780;25.948;2022-10-15T11:50:58;101426.13;;;21.50;62.58
45285;BME280;31026;43.780;25.948;2022-10-15T11:56:17;101419.75;;;21.51;63.28
45285;BME280;31026;43.780;25.948;2022-10-15T11:58:47;101418.88;;;21.50;63.27
45285;BME280;31026;43.780;25.948;2022-10-15T12:01:18;101422.16;;;21.54;63.33
45285;BME280;31026;43.780;25.948;2022-10-15T12:03:49;101418.22;;;21.58;62.94
45285;BME280;31026;43.780;25.948;2022-10-15T12:06:19;101404.19;;;21.64;62.79
45285;BME280;31026;43.780;25.948;2022-10-15T12:08:48;101408.63;;;21.65;62.87
45285;BME280;31026;43.780;25.948;2022-10-15T12:11:23;101399.66;;;21.64;62.80
45285;BME280;31026;43.780;25.948;2022-10-15T12:13:55;101408.63;;;21.65;62.59
45285;BME280;31026;43.780;25.948;2022-10-15T12:16:27;101412.41;;;21.62;62.40
45285;BME280;31026;43.780;25.948;2022-10-15T12:19:01;101416.41;;;21.68;62.65
45285;BME280;31026;43.780;25.948;2022-10-15T12:21:33;101416.69;;;21.65;63.21
45285;BME280;31026;43.780;25.948;2022-10-15T12:24:02;101405.63;;;21.68;63.16
45285;BME280;31026;43.780;25.948;2022-10-15T12:26:37;101405.91;;;21.65;63.31
45285;BME280;31026;43.780;25.948;2022-10-15T12:29:15;101430.28;;;21.63;63.76
45285;BME280;31026;43.780;25.948;2022-10-15T12:31:45;101429.97;;;21.57;63.04
45285;BME280;31026;43.780;25.948;2022-10-15T12:34:27;101426.88;;;21.61;63.25
45285;BME280;31026;43.780;25.948;2022-10-15T12:37:00;101425.31;;;21.59;62.96
45285;BME280;31026;43.780;25.948;2022-10-15T12:39:30;101432.50;;;21.58;62.88
45285;BME280;31026;43.780;25.948;2022-10-15T12:42:01;101420.06;;;21.57;62.88
45285;BME280;31026;43.780;25.948;2022-10-15T12:44:30;101417.94;;;21.61;63.15
45285;BME280;31026;43.780;25.948;2022-10-15T12:46:59;101402.78;;;21.60;63.27
45285;BME280;31026;43.780;25.948;2022-10-15T12:54:54;101420.94;;;21.68;63.01
45285;BME280;31026;43.780;25.948;2022-10-15T12:57:58;101420.81;;;21.69;63.11
45285;BME280;31026;43.780;25.948;2022-10-15T13:00:28;101411.56;;;21.62;61.83
45285;BME280;31026;43.780;25.948;2022-10-15T13:02:57;101412.13;;;21.56;63.64
45285;BME280;31026;43.780;25.948;2022-10-15T13:05:35;101412.06;;;21.46;64.52
45285;BME280;31026;43.780;25.948;2022-10-15T13:08:05;101427.09;;;21.49;62.73
45285;BME280;31026;43.780;25.948;2022-10-15T13:10:40;101431.28;;;21.41;62.23